| time (UTC) | temp F | wind direction | speed MPH | gust MPH | rain 1hr in | rain 24hr in | rain mn in | humidity % | barometer mb |
| 20260505130228 | 49 | 88 | 3.0 | 4.0 | 0.00 | 0.02 | 0.02 | 63 | 1012.6 |
| 20260505124718 | 49 | 161 | 1.0 | 2.0 | 0.00 | 0.02 | 0.02 | 66 | 1012.2 |
| 20260505124215 | 49 | 171 | 1.0 | 4.0 | 0.00 | 0.02 | 0.02 | 67 | 1012.1 |
| 20260505123711 | 48 | 159 | 0.0 | 3.0 | 0.00 | 0.02 | 0.02 | 69 | 1012.0 |
| 20260505123208 | 48 | 171 | 0.0 | 1.0 | 0.00 | 0.02 | 0.02 | 71 | 1012.0 |
| 20260505122704 | 48 | 178 | 0.0 | 0.0 | 0.00 | 0.02 | 0.02 | 72 | 1011.8 |
| 20260505122201 | 48 | 171 | 0.0 | 0.0 | 0.00 | 0.02 | 0.02 | 74 | 1011.8 |
| 20260505121658 | 48 | 185 | 0.0 | 0.0 | 0.00 | 0.02 | 0.02 | 76 | 1011.7 |
| 20260505121154 | 47 | 178 | 0.0 | 0.0 | 0.00 | 0.02 | 0.02 | 78 | 1011.6 |
| 20260505120651 | 47 | 169 | 0.0 | 0.0 | 0.00 | 0.02 | 0.02 | 79 | 1011.6 |
| 20260505120148 | 47 | 166 | 0.0 | 0.0 | 0.00 | 0.02 | 0.02 | 79 | 1011.5 |
| 20260505115646 | 47 | 168 | 0.0 | 0.0 | 0.00 | 0.02 | 0.02 | 79 | 1011.1 |
| 20260505115145 | 47 | 164 | 0.0 | 0.0 | 0.00 | 0.02 | 0.02 | 80 | 1010.9 |
| 20260505114642 | 47 | 164 | 0.0 | 0.0 | 0.00 | 0.02 | 0.02 | 80 | 1011.0 |
| 20260505114138 | 47 | 126 | 2.0 | 2.0 | 0.00 | 0.02 | 0.02 | 80 | 1010.9 |
| 20260505113634 | 47 | 168 | 1.0 | 2.0 | 0.00 | 0.02 | 0.02 | 81 | 1010.9 |
| 20260505113131 | 47 | 112 | 1.0 | 2.0 | 0.00 | 0.02 | 0.02 | 83 | 1011.0 |
| 20260505112627 | 47 | 160 | 0.0 | 1.0 | 0.00 | 0.02 | 0.02 | 84 | 1010.9 |
| 20260505112126 | 47 | 121 | 2.0 | 2.0 | 0.00 | 0.02 | 0.02 | 85 | 1011.1 |
| 20260505111625 | 47 | 168 | 0.0 | 0.0 | 0.00 | 0.02 | 0.02 | 85 | 1011.2 |
| 20260505111121 | 47 | 167 | 0.0 | 0.0 | 0.00 | 0.02 | 0.02 | 85 | 1011.2 |
| 20260505110618 | 47 | 165 | 0.0 | 0.0 | 0.00 | 0.02 | 0.02 | 85 | 1011.2 |
| 20260505110115 | 46 | 165 | 0.0 | 0.0 | 0.00 | 0.02 | 0.02 | 86 | 1011.1 |
| 20260505102050 | 47 | 168 | 0.0 | 0.0 | 0.00 | 0.02 | 0.02 | 84 | 1011.4 |
| 20260505101549 | 48 | 166 | 0.0 | 0.0 | 0.00 | 0.02 | 0.02 | 84 | 1011.4 |
| 20260505101045 | 48 | 167 | 0.0 | 0.0 | 0.00 | 0.02 | 0.02 | 82 | 1011.4 |
| 20260505100542 | 48 | 165 | 0.0 | 0.0 | 0.00 | 0.02 | 0.02 | 82 | 1011.4 |
| 20260505100039 | 48 | 167 | 0.0 | 0.0 | 0.00 | 0.02 | 0.02 | 84 | 1011.3 |
| 20260505095535 | 48 | 167 | 0.0 | 0.0 | 0.00 | 0.02 | 0.02 | 84 | 1011.3 |
| 20260505095031 | 48 | 167 | 0.0 | 0.0 | 0.00 | 0.02 | 0.02 | 85 | 1011.2 |
| 20260505094528 | 48 | 165 | 0.0 | 0.0 | 0.00 | 0.02 | 0.02 | 85 | 1011.3 |
| 20260505094024 | 48 | 169 | 0.0 | 0.0 | 0.00 | 0.02 | 0.02 | 86 | 1011.1 |
| 20260505093521 | 48 | 170 | 0.0 | 0.0 | 0.00 | 0.02 | 0.02 | 86 | 1011.0 |
| 20260505093018 | 48 | 168 | 0.0 | 0.0 | 0.00 | 0.02 | 0.02 | 86 | 1010.9 |
| 20260505092515 | 48 | 167 | 0.0 | 2.0 | 0.00 | 0.02 | 0.02 | 86 | 1010.9 |
| 20260505092014 | 48 | 149 | 1.0 | 3.0 | 0.00 | 0.02 | 0.02 | 85 | 1010.5 |
| 20260505091510 | 48 | 134 | 2.0 | 2.0 | 0.00 | 0.02 | 0.02 | 86 | 1010.5 |
| 20260505091008 | 48 | 156 | 2.0 | 3.0 | 0.00 | 0.02 | 0.02 | 86 | 1010.4 |
| 20260505090506 | 48 | 165 | 0.0 | 0.0 | 0.00 | 0.02 | 0.02 | 85 | 1010.4 |
| 20260505090003 | 48 | 165 | 0.0 | 0.0 | 0.00 | 0.02 | 0.02 | 84 | 1010.4 |
| 20260505085501 | 48 | 168 | 0.0 | 0.0 | 0.00 | 0.02 | 0.02 | 83 | 1010.3 |
| 20260505084959 | 48 | 169 | 0.0 | 0.0 | 0.00 | 0.02 | 0.02 | 82 | 1010.2 |
| 20260505084457 | 48 | 168 | 0.0 | 0.0 | 0.00 | 0.02 | 0.02 | 84 | 1010.4 |
| 20260505083955 | 48 | 167 | 0.0 | 1.0 | 0.00 | 0.02 | 0.02 | 84 | 1010.3 |
| 20260505083452 | 48 | 168 | 0.0 | 0.0 | 0.00 | 0.02 | 0.02 | 85 | 1010.3 |
| 20260505082948 | 48 | 171 | 0.0 | 0.0 | 0.00 | 0.02 | 0.02 | 85 | 1010.3 |
| 20260505082444 | 48 | 177 | 0.0 | 0.0 | 0.00 | 0.02 | 0.02 | 85 | 1010.0 |
| 20260505081941 | 48 | 160 | 0.0 | 0.0 | 0.00 | 0.02 | 0.02 | 86 | 1010.1 |
| 20260505081438 | 48 | 168 | 0.0 | 0.0 | 0.00 | 0.02 | 0.02 | 86 | 1010.0 |
| 20260505080934 | 48 | 168 | 0.0 | 0.0 | 0.00 | 0.02 | 0.02 | 85 | 1009.5 |
| 20260505080430 | 48 | 165 | 0.0 | 0.0 | 0.00 | 0.02 | 0.02 | 85 | 1009.8 |
| 20260505075926 | 48 | 167 | 0.0 | 1.0 | 0.00 | 0.02 | 0.02 | 85 | 1009.2 |
| 20260505075423 | 49 | 167 | 0.0 | 0.0 | 0.00 | 0.02 | 0.02 | 85 | 1009.4 |
| 20260505074921 | 48 | 165 | 0.0 | 2.0 | 0.00 | 0.02 | 0.02 | 85 | 1009.5 |
| 20260505074418 | 48 | 170 | 1.0 | 3.0 | 0.00 | 0.02 | 0.02 | 86 | 1009.6 |
| 20260505073914 | 48 | 163 | 0.0 | 0.0 | 0.00 | 0.02 | 0.02 | 87 | 1009.7 |
| 20260505073413 | 48 | 176 | 1.0 | 1.0 | 0.00 | 0.02 | 0.02 | 87 | 1009.7 |
| 20260505072909 | 48 | 166 | 0.0 | 1.0 | 0.00 | 0.02 | 0.02 | 88 | 1009.7 |
| 20260505072405 | 48 | 172 | 1.0 | 1.0 | 0.00 | 0.02 | 0.02 | 87 | 1009.8 |
| 20260505071902 | 48 | 165 | 0.0 | 0.0 | 0.00 | 0.02 | 0.02 | 87 | 1009.4 |
| 20260505071358 | 47 | 165 | 0.0 | 0.0 | 0.00 | 0.02 | 0.02 | 86 | 1009.6 |
| 20260505070856 | 48 | 167 | 0.0 | 0.0 | 0.00 | 0.02 | 0.02 | 86 | 1009.5 |
| 20260505070352 | 48 | 172 | 1.0 | 3.0 | 0.00 | 0.02 | 0.02 | 85 | 1009.6 |
| 20260505065848 | 48 | 178 | 2.0 | 3.0 | 0.00 | 0.02 | 0.02 | 84 | 1009.5 |
| 20260505065345 | 48 | 175 | 0.0 | 1.0 | 0.00 | 0.02 | 0.02 | 83 | 1008.9 |
| 20260505064842 | 48 | 165 | 0.0 | 1.0 | 0.00 | 0.02 | 0.02 | 85 | 1009.1 |
| 20260505064339 | 48 | 162 | 0.0 | 0.0 | 0.00 | 0.02 | 0.02 | 84 | 1009.3 |
| 20260505063837 | 48 | 177 | 1.0 | 2.0 | 0.00 | 0.02 | 0.02 | 83 | 1009.7 |
| 20260505063333 | 48 | 177 | 0.0 | 1.0 | 0.00 | 0.02 | 0.02 | 79 | 1009.3 |
| 20260505062830 | 48 | 160 | 0.0 | 1.0 | 0.07 | 0.02 | 0.02 | 77 | 1009.3 |
| 20260505062327 | 49 | 153 | 1.0 | 1.0 | 0.07 | 0.02 | 0.02 | 75 | 1009.5 |
| 20260505061823 | 49 | 172 | 0.0 | 1.0 | 0.00 | 0.01 | 0.01 | 74 | 1010.2 |
| 20260505061322 | 49 | 208 | 2.0 | 3.0 | 0.00 | 0.01 | 0.01 | 74 | 1010.2 |
| 20260505060819 | 49 | 141 | 2.0 | 2.0 | 0.00 | 0.01 | 0.01 | 74 | 1010.0 |
| 20260505060316 | 49 | 182 | 0.0 | 3.0 | 0.00 | 0.01 | 0.01 | 74 | 1009.4 |
| 20260505055811 | 49 | 137 | 3.0 | 4.0 | 0.00 | 0.01 | 0.01 | 74 | 1009.4 |
| 20260505055307 | 49 | 167 | 0.0 | 3.0 | 0.00 | 0.01 | 0.01 | 74 | 1009.6 |
| 20260505054805 | 49 | 270 | 5.0 | 6.0 | 0.00 | 0.01 | 0.01 | 74 | 1009.8 |
| 20260505054302 | 50 | 132 | 3.0 | 4.0 | 0.00 | 0.01 | 0.01 | 73 | 1009.5 |
| 20260505053801 | 50 | 198 | 3.0 | 4.0 | 0.00 | 0.01 | 0.01 | 72 | 1010.0 |
| 20260505053257 | 50 | 161 | 4.0 | 6.0 | 0.00 | 0.01 | 0.01 | 71 | 1009.6 |
| 20260505052754 | 50 | 288 | 3.0 | 7.0 | 0.00 | 0.01 | 0.01 | 70 | 1009.4 |
| 20260505052251 | 50 | 73 | 4.0 | 4.0 | 0.00 | 0.01 | 0.01 | 71 | 1009.4 |
| 20260505051748 | 50 | 131 | 3.0 | 7.0 | 0.00 | 0.01 | 0.01 | 70 | 1009.4 |
| 20260505051246 | 50 | 0 | 5.0 | 7.0 | 0.00 | 0.01 | 0.01 | 70 | 1009.4 |
| 20260505050743 | 50 | 114 | 4.0 | 7.0 | 0.05 | 0.01 | 0.01 | 71 | 1009.4 |
| 20260505050242 | 50 | 34 | 4.0 | 8.0 | 0.05 | 0.01 | 0.01 | 69 | 1010.0 |
| 20260505041712 | 54 | 145 | 5.0 | 8.0 | 0.00 | 0.00 | 0.00 | 50 | 1010.2 |
| 20260505041209 | 55 | 4 | 4.0 | 9.0 | 0.00 | 0.00 | 0.00 | 50 | 1009.7 |
| 20260505040706 | 55 | 2 | 7.0 | 13.0 | 0.00 | 0.00 | 0.00 | 47 | 1010.0 |
| 20260505040203 | 55 | 6 | 8.0 | 13.0 | 0.00 | 0.00 | 0.00 | 46 | 1009.9 |
| 20260505035700 | 55 | 146 | 3.0 | 10.0 | 0.00 | 0.00 | 0.00 | 46 | 1009.4 |
| 20260505035156 | 55 | 106 | 7.0 | 11.0 | 0.00 | 0.00 | 0.00 | 46 | 1009.4 |
| 20260505034652 | 55 | 115 | 6.0 | 9.0 | 0.00 | 0.00 | 0.00 | 45 | 1009.1 |
| 20260505034150 | 55 | 30 | 6.0 | 11.0 | 0.00 | 0.00 | 0.00 | 46 | 1009.1 |
| 20260505033646 | 56 | 9 | 8.0 | 15.0 | 0.00 | 0.00 | 0.00 | 46 | 1009.0 |
| 20260505033144 | 56 | 18 | 5.0 | 14.0 | 0.00 | 0.00 | 0.00 | 46 | 1009.1 |
| 20260505032642 | 56 | 2 | 13.0 | 15.0 | 0.00 | 0.00 | 0.00 | 46 | 1008.9 |
| 20260505032138 | 56 | 50 | 12.0 | 14.0 | 0.00 | 0.00 | 0.00 | 46 | 1008.9 |
| 20260505031636 | 56 | 34 | 6.0 | 11.0 | 0.00 | 0.00 | 0.00 | 46 | 1009.0 |
| 20260505031131 | 56 | 358 | 11.0 | 13.0 | 0.00 | 0.00 | 0.00 | 46 | 1009.2 |
| 20260505030629 | 56 | 32 | 12.0 | 15.0 | 0.00 | 0.00 | 0.00 | 44 | 1008.9 |
| 20260505030124 | 57 | 20 | 10.0 | 13.0 | 0.00 | 0.00 | 0.00 | 44 | 1008.7 |
| 20260505025620 | 56 | 282 | 7.0 | 11.0 | 0.00 | 0.00 | 0.00 | 45 | 1008.7 |
| 20260505025120 | 57 | 337 | 9.0 | 14.0 | 0.00 | 0.00 | 0.00 | 44 | 1008.5 |
| 20260505024616 | 57 | 71 | 7.0 | 13.0 | 0.00 | 0.00 | 0.00 | 45 | 1008.6 |
| 20260505024114 | 57 | 355 | 11.0 | 22.0 | 0.00 | 0.00 | 0.00 | 45 | 1008.3 |
| 20260505023611 | 57 | 355 | 10.0 | 21.0 | 0.00 | 0.00 | 0.00 | 45 | 1008.2 |
| 20260505023109 | 57 | 330 | 9.0 | 16.0 | 0.00 | 0.00 | 0.00 | 45 | 1008.1 |
| 20260505022606 | 57 | 358 | 11.0 | 18.0 | 0.00 | 0.00 | 0.00 | 44 | 1008.2 |
| 20260505022102 | 57 | 317 | 8.0 | 13.0 | 0.00 | 0.00 | 0.00 | 44 | 1008.0 |
| 20260505021559 | 58 | 342 | 9.0 | 22.0 | 0.00 | 0.00 | 0.00 | 44 | 1007.8 |
| 20260505021056 | 58 | 60 | 9.0 | 17.0 | 0.00 | 0.00 | 0.00 | 44 | 1007.6 |
| 20260505020556 | 58 | 329 | 8.0 | 16.0 | 0.00 | 0.00 | 0.00 | 45 | 1008.0 |
| 20260505020053 | 58 | 24 | 10.0 | 16.0 | 0.00 | 0.00 | 0.00 | 45 | 1007.6 |
| 20260505015550 | 58 | 348 | 11.0 | 19.0 | 0.00 | 0.00 | 0.00 | 45 | 1007.7 |
| 20260505015047 | 58 | 338 | 14.0 | 19.0 | 0.00 | 0.00 | 0.00 | 44 | 1007.7 |
| 20260505014543 | 58 | 0 | 7.0 | 17.0 | 0.00 | 0.00 | 0.00 | 45 | 1007.3 |
| 20260505014041 | 59 | 20 | 11.0 | 21.0 | 0.00 | 0.00 | 0.00 | 45 | 1007.4 |
| 20260505013538 | 59 | 13 | 12.0 | 18.0 | 0.00 | 0.00 | 0.00 | 44 | 1007.3 |
| 20260505013035 | 59 | 16 | 15.0 | 23.0 | 0.00 | 0.00 | 0.00 | 43 | 1007.3 |
| 20260505012533 | 60 | 339 | 16.0 | 25.0 | 0.00 | 0.00 | 0.00 | 42 | 1007.0 |
| 20260505012030 | 61 | 334 | 10.0 | 15.0 | 0.00 | 0.00 | 0.00 | 41 | 1006.7 |
| 20260505011525 | 61 | 344 | 12.0 | 18.0 | 0.00 | 0.00 | 0.00 | 41 | 1006.6 |
| 20260505011023 | 61 | 336 | 12.0 | 17.0 | 0.00 | 0.00 | 0.00 | 41 | 1006.8 |
| 20260505010518 | 62 | 18 | 12.0 | 19.0 | 0.00 | 0.00 | 0.00 | 40 | 1006.5 |
| 20260505010015 | 62 | 15 | 11.0 | 23.0 | 0.00 | 0.00 | 0.00 | 39 | 1006.6 |
| 20260505005511 | 63 | 28 | 15.0 | 19.0 | 0.00 | 0.00 | 0.00 | 38 | 1006.5 |
| 20260505005009 | 64 | 359 | 16.0 | 25.0 | 0.00 | 0.00 | 0.00 | 38 | 1006.3 |
| 20260505004506 | 64 | 17 | 11.0 | 16.0 | 0.00 | 0.00 | 0.00 | 37 | 1006.3 |
| 20260505004002 | 65 | 358 | 14.0 | 19.0 | 0.00 | 0.00 | 0.00 | 37 | 1006.1 |
| 20260505003500 | 65 | 22 | 12.0 | 17.0 | 0.00 | 0.00 | 0.00 | 37 | 1006.1 |
| 20260505002956 | 65 | 20 | 9.0 | 18.0 | 0.00 | 0.00 | 0.00 | 36 | 1005.9 |
| 20260505002452 | 66 | 337 | 10.0 | 18.0 | 0.00 | 0.00 | 0.00 | 36 | 1005.7 |
| 20260505001950 | 66 | 276 | 14.0 | 18.0 | 0.00 | 0.00 | 0.00 | 35 | 1005.8 |
| 20260505001448 | 68 | 340 | 16.0 | 24.0 | 0.00 | 0.00 | 0.00 | 35 | 1005.7 |
| 20260505000945 | 68 | 8 | 8.0 | 10.0 | 0.00 | 0.00 | 0.00 | 36 | 1005.6 |
| 20260505000443 | 68 | 23 | 9.0 | 13.0 | 0.00 | 0.00 | 0.00 | 36 | 1005.5 |
| 20260504235939 | 69 | 319 | 9.0 | 14.0 | 0.00 | 0.00 | 0.00 | 36 | 1005.5 |
| 20260504235436 | 69 | 351 | 9.0 | 17.0 | 0.00 | 0.00 | 0.00 | 35 | 1005.4 |
| 20260504234932 | 69 | 10 | 12.0 | 18.0 | 0.00 | 0.00 | 0.00 | 35 | 1005.4 |
| 20260504234430 | 69 | 6 | 13.0 | 21.0 | 0.00 | 0.00 | 0.00 | 35 | 1005.3 |
| 20260504233926 | 69 | 312 | 11.0 | 15.0 | 0.00 | 0.00 | 0.00 | 35 | 1005.4 |
| 20260504233422 | 70 | 317 | 10.0 | 17.0 | 0.00 | 0.00 | 0.00 | 34 | 1005.3 |
| 20260504232919 | 70 | 350 | 7.0 | 13.0 | 0.00 | 0.00 | 0.00 | 34 | 1005.1 |
| 20260504232417 | 71 | 7 | 12.0 | 18.0 | 0.00 | 0.00 | 0.00 | 33 | 1004.9 |
| 20260504231914 | 71 | 273 | 10.0 | 17.0 | 0.00 | 0.00 | 0.00 | 33 | 1005.0 |
| 20260504231409 | 72 | 12 | 8.0 | 15.0 | 0.00 | 0.00 | 0.00 | 33 | 1004.7 |
| 20260504230906 | 72 | 0 | 11.0 | 16.0 | 0.00 | 0.00 | 0.00 | 32 | 1004.9 |
| 20260504230403 | 72 | 344 | 9.0 | 15.0 | 0.00 | 0.00 | 0.00 | 32 | 1004.8 |
| 20260504225902 | 73 | 334 | 11.0 | 16.0 | 0.00 | 0.00 | 0.00 | 32 | 1004.4 |
| 20260504225358 | 72 | 71 | 6.0 | 16.0 | 0.00 | 0.00 | 0.00 | 32 | 1004.3 |
| 20260504224856 | 73 | 346 | 9.0 | 14.0 | 0.00 | 0.00 | 0.00 | 32 | 1004.1 |
| 20260504224352 | 73 | 73 | 10.0 | 16.0 | 0.00 | 0.00 | 0.00 | 32 | 1004.0 |
| 20260504223849 | 73 | 31 | 11.0 | 17.0 | 0.00 | 0.00 | 0.00 | 32 | 1004.0 |
| 20260504223344 | 74 | 4 | 13.0 | 19.0 | 0.00 | 0.00 | 0.00 | 32 | 1003.8 |
| 20260504222841 | 75 | 18 | 13.0 | 17.0 | 0.00 | 0.00 | 0.00 | 32 | 1003.8 |
| 20260504222338 | 75 | 8 | 11.0 | 16.0 | 0.00 | 0.00 | 0.00 | 32 | 1003.6 |
| 20260504221837 | 75 | 46 | 10.0 | 16.0 | 0.00 | 0.00 | 0.00 | 31 | 1003.5 |
| 20260504221333 | 75 | 12 | 11.0 | 23.0 | 0.00 | 0.00 | 0.00 | 32 | 1003.6 |
| 20260504220830 | 76 | 324 | 10.0 | 16.0 | 0.00 | 0.00 | 0.00 | 32 | 1003.4 |
| 20260504220327 | 76 | 359 | 7.0 | 16.0 | 0.00 | 0.00 | 0.00 | 32 | 1003.0 |
| 20260504215824 | 76 | 1 | 9.0 | 14.0 | 0.00 | 0.00 | 0.00 | 32 | 1003.2 |
| 20260504215320 | 76 | 26 | 13.0 | 18.0 | 0.00 | 0.00 | 0.00 | 31 | 1003.2 |
| 20260504214816 | 76 | 50 | 7.0 | 16.0 | 0.00 | 0.00 | 0.00 | 32 | 1002.9 |
| 20260504214314 | 77 | 254 | 9.0 | 15.0 | 0.00 | 0.00 | 0.00 | 32 | 1003.1 |
| 20260504213810 | 77 | 37 | 6.0 | 15.0 | 0.00 | 0.00 | 0.00 | 32 | 1002.9 |
| 20260504213306 | 77 | 86 | 8.0 | 11.0 | 0.00 | 0.00 | 0.00 | 32 | 1003.1 |
| 20260504212804 | 77 | 26 | 8.0 | 13.0 | 0.00 | 0.00 | 0.00 | 32 | 1002.9 |
| 20260504212300 | 77 | 3 | 7.0 | 16.0 | 0.00 | 0.00 | 0.00 | 33 | 1003.0 |
| 20260504211758 | 77 | 356 | 8.0 | 14.0 | 0.00 | 0.00 | 0.00 | 33 | 1003.0 |
| 20260504211253 | 77 | 353 | 9.0 | 11.0 | 0.00 | 0.00 | 0.00 | 33 | 1003.0 |
| 20260504210751 | 77 | 56 | 7.0 | 14.0 | 0.00 | 0.00 | 0.00 | 34 | 1003.0 |
| 20260504210248 | 77 | 356 | 5.0 | 19.0 | 0.00 | 0.00 | 0.00 | 35 | 1002.7 |
| 20260504205745 | 78 | 77 | 10.0 | 14.0 | 0.00 | 0.00 | 0.00 | 34 | 1002.7 |
| 20260504205243 | 77 | 1 | 8.0 | 15.0 | 0.00 | 0.00 | 0.00 | 35 | 1002.7 |
| 20260504204741 | 78 | 319 | 7.0 | 10.0 | 0.00 | 0.00 | 0.00 | 35 | 1002.7 |
| 20260504204239 | 78 | 89 | 6.0 | 13.0 | 0.00 | 0.00 | 0.00 | 35 | 1002.7 |
| 20260504203738 | 77 | 266 | 6.0 | 11.0 | 0.00 | 0.00 | 0.00 | 36 | 1002.7 |
| 20260504203235 | 78 | 10 | 5.0 | 14.0 | 0.00 | 0.00 | 0.00 | 36 | 1002.6 |
| 20260504202735 | 79 | 48 | 7.0 | 10.0 | 0.00 | 0.00 | 0.00 | 36 | 1002.6 |
| 20260504202232 | 78 | 90 | 7.0 | 11.0 | 0.00 | 0.00 | 0.00 | 38 | 1002.5 |
| 20260504201729 | 79 | 61 | 9.0 | 16.0 | 0.00 | 0.00 | 0.00 | 36 | 1002.7 |
| 20260504201226 | 79 | 345 | 7.0 | 14.0 | 0.00 | 0.00 | 0.00 | 36 | 1002.6 |
| 20260504200724 | 79 | 3 | 13.0 | 17.0 | 0.00 | 0.00 | 0.00 | 36 | 1002.6 |
| 20260504200220 | 79 | 15 | 8.0 | 13.0 | 0.00 | 0.00 | 0.00 | 36 | 1002.6 |
| 20260504195716 | 79 | 326 | 7.0 | 17.0 | 0.00 | 0.00 | 0.00 | 35 | 1002.5 |
| 20260504195212 | 79 | 36 | 6.0 | 15.0 | 0.00 | 0.00 | 0.00 | 36 | 1002.4 |
| 20260504194710 | 79 | 120 | 6.0 | 11.0 | 0.00 | 0.00 | 0.00 | 36 | 1002.6 |
| 20260504194206 | 80 | 1 | 8.0 | 14.0 | 0.00 | 0.00 | 0.00 | 37 | 1002.6 |
| 20260504193702 | 80 | 345 | 6.0 | 13.0 | 0.00 | 0.00 | 0.00 | 35 | 1002.3 |
| 20260504193200 | 80 | 45 | 5.0 | 13.0 | 0.00 | 0.00 | 0.00 | 35 | 1002.3 |
| 20260504192658 | 80 | 91 | 3.0 | 15.0 | 0.00 | 0.00 | 0.00 | 35 | 1002.2 |
| 20260504192156 | 80 | 99 | 5.0 | 10.0 | 0.00 | 0.00 | 0.00 | 34 | 1002.3 |
| 20260504191654 | 80 | 198 | 7.0 | 17.0 | 0.00 | 0.00 | 0.00 | 34 | 1002.1 |
| 20260504191150 | 80 | 324 | 3.0 | 11.0 | 0.00 | 0.00 | 0.00 | 35 | 1002.2 |
| 20260504190646 | 80 | 73 | 5.0 | 10.0 | 0.00 | 0.00 | 0.00 | 34 | 1002.1 |
| 20260504190143 | 81 | 252 | 5.0 | 13.0 | 0.00 | 0.00 | 0.00 | 33 | 1002.3 |
| 20260504185639 | 81 | 275 | 3.0 | 8.0 | 0.00 | 0.00 | 0.00 | 33 | 1002.0 |
| 20260504185136 | 82 | 15 | 5.0 | 14.0 | 0.00 | 0.00 | 0.00 | 32 | 1001.8 |
| 20260504184632 | 81 | 198 | 1.0 | 9.0 | 0.00 | 0.00 | 0.00 | 32 | 1001.9 |
| 20260504184127 | 81 | 64 | 7.0 | 13.0 | 0.00 | 0.00 | 0.00 | 33 | 1001.9 |
| 20260504183624 | 81 | 10 | 4.0 | 8.0 | 0.00 | 0.00 | 0.00 | 32 | 1001.6 |
| 20260504183122 | 81 | 8 | 6.0 | 14.0 | 0.00 | 0.00 | 0.00 | 32 | 1002.0 |
| 20260504182619 | 80 | 321 | 7.0 | 9.0 | 0.00 | 0.00 | 0.00 | 33 | 1001.9 |
| 20260504182117 | 80 | 359 | 4.0 | 16.0 | 0.00 | 0.00 | 0.00 | 32 | 1002.0 |
| 20260504181614 | 79 | 13 | 4.0 | 13.0 | 0.00 | 0.00 | 0.00 | 33 | 1001.8 |
| 20260504181111 | 81 | 305 | 5.0 | 14.0 | 0.00 | 0.00 | 0.00 | 33 | 1002.0 |
| 20260504180610 | 82 | 318 | 3.0 | 7.0 | 0.00 | 0.00 | 0.00 | 32 | 1001.9 |
| 20260504180109 | 82 | 59 | 7.0 | 9.0 | 0.00 | 0.00 | 0.00 | 31 | 1001.9 |
| 20260504175606 | 81 | 291 | 4.0 | 9.0 | 0.00 | 0.00 | 0.00 | 32 | 1002.0 |
| 20260504175102 | 81 | 345 | 7.0 | 13.0 | 0.00 | 0.00 | 0.00 | 32 | 1002.0 |
| 20260504174600 | 81 | 72 | 1.0 | 4.0 | 0.00 | 0.00 | 0.00 | 32 | 1002.1 |
| 20260504174057 | 81 | 239 | 6.0 | 10.0 | 0.00 | 0.00 | 0.00 | 32 | 1002.2 |
| 20260504173553 | 80 | 166 | 1.0 | 7.0 | 0.00 | 0.00 | 0.00 | 34 | 1002.1 |
| 20260504173051 | 80 | 189 | 3.0 | 10.0 | 0.00 | 0.00 | 0.00 | 33 | 1002.2 |
| 20260504172547 | 79 | 1 | 3.0 | 9.0 | 0.00 | 0.00 | 0.00 | 34 | 1002.1 |
| 20260504172044 | 79 | 323 | 7.0 | 10.0 | 0.00 | 0.00 | 0.00 | 33 | 1002.3 |
| 20260504171541 | 79 | 252 | 5.0 | 15.0 | 0.00 | 0.00 | 0.00 | 33 | 1002.1 |
| 20260504171038 | 79 | 292 | 6.0 | 13.0 | 0.00 | 0.00 | 0.00 | 34 | 1002.3 |
| 20260504170533 | 78 | 194 | 3.0 | 6.0 | 0.00 | 0.00 | 0.00 | 37 | 1002.2 |
| 20260504150917 | 71 | 209 | 4.0 | 6.0 | 0.00 | 0.00 | 0.00 | 43 | 1002.3 |
| 20260504150414 | 70 | 201 | 2.0 | 4.0 | 0.00 | 0.00 | 0.00 | 43 | 1002.4 |
| 20260504140841 | 64 | 42 | 4.0 | 6.0 | 0.00 | 0.00 | 0.00 | 51 | 1003.0 |
| 20260504140336 | 63 | 116 | 0.0 | 0.0 | 0.00 | 0.00 | 0.00 | 53 | 1002.9 |